Latest Weather Observations for Cape Willoughby

IDS60801

Issued at 3:02 pm CDT Friday 30 January 2015 (issued every 30 minutes, with the page automatically refreshed every 10 minutes)

About weather observations | Map of weather stations | Latest weather observations for SA | Other Formats
Station Details ID: 022803 Name: CAPE WILLOUGHBY Lat: -35.84 Lon: 138.13 Height: 55.0 m
Data from the previous 72 hours. | See also: Recent months at Cape Willoughby
Date/Time
CDT
Temp
°C
App
Temp
°C
Dew
Point
Rel
Hum
%
Delta-T
°C
Wind Press
QNH
hPa
Press
MSL
hPa
Rain
since 9 am
mm
Dir
 
Spd
km/h
Gust
km/h
Spd
kts
Gust
kts
30/02:00pm 17.6 12.3 11.4 67 3.4 SSE 30 39 16 21 1017.5 1017.4 -
30/01:30pm 17.6 12.0 11.4 67 3.4 SSE 32 37 17 20 1017.6 1017.5 -
30/01:00pm 17.9 12.4 11.7 67 3.4 SE 32 39 17 21 1017.8 1017.7 -
30/12:30pm 18.6 13.3 12.4 67 3.5 SE 32 37 17 20 1018.1 1018.0 0.0
30/12:00pm 17.7 12.2 11.7 68 3.3 SE 32 35 17 19 1018.2 1018.1 0.0
30/11:30am 18.4 13.1 12.4 68 3.3 SE 32 39 17 21 1018.3 1018.2 0.0
30/11:00am 18.2 12.7 12.6 70 3.1 SE 33 37 18 20 1018.4 1018.3 0.0
30/10:30am 17.8 12.3 12.5 71 2.9 ESE 33 41 18 22 1018.5 1018.4 0.0
30/10:00am 17.7 11.6 13.0 74 2.6 ESE 37 44 20 24 1018.3 1018.2 0.0
30/09:30am 17.3 11.1 12.8 75 2.5 ESE 37 44 20 24 1018.4 1018.3 0.0
30/09:00am 17.4 11.0 13.3 77 2.3 ESE 39 46 21 25 1018.2 1018.1 0.0
30/08:30am 17.0 10.9 13.1 78 2.2 ESE 37 46 20 25 1018.1 1018.0 0.0
30/08:00am 17.0 11.7 13.1 78 2.2 ESE 33 43 18 23 1018.0 1017.9 0.0
30/07:30am 16.6 11.0 13.3 81 1.8 ESE 35 43 19 23 1017.7 1017.6 0.0
30/07:00am 16.0 10.2 12.7 81 1.8 ESE 35 43 19 23 1017.5 1017.4 0.0
30/06:30am 16.2 10.5 13.1 82 1.7 ESE 35 41 19 22 1017.3 1017.2 0.0
30/06:00am 16.2 10.5 13.1 82 1.7 ESE 35 43 19 23 1017.0 1016.9 0.0
30/05:30am 16.1 10.3 12.7 80 1.9 ESE 35 43 19 23 1016.8 1016.7 0.0
30/05:00am 16.5 10.4 13.0 80 2.0 ESE 37 46 20 25 1016.7 1016.6 0.0
30/04:30am 16.6 11.1 12.6 77 2.2 ESE 33 41 18 22 1016.8 1016.7 0.0
30/04:00am 16.8 11.3 12.5 76 2.4 ESE 33 43 18 23 1016.9 1016.8 0.0
30/03:30am 17.1 11.8 12.6 75 2.5 ESE 32 39 17 21 1017.0 1016.9 0.0
30/03:00am 17.2 12.3 12.7 75 2.5 ESE 30 35 16 19 1017.2 1017.1 0.0
30/02:30am 17.5 13.0 12.6 73 2.7 ESE 28 33 15 18 1017.5 1017.4 0.0
30/02:00am 17.7 14.0 12.8 73 2.7 ESE 24 32 13 17 1017.7 1017.6 0.0
30/01:30am 17.7 12.7 13.4 76 2.4 SE 32 41 17 22 1017.1 1017.0 0.0
30/01:00am 18.0 11.0 13.7 76 2.4 SE 43 52 23 28 1016.9 1016.8 0.0
30/12:30am 17.7 10.5 13.8 78 2.2 SE 44 56 24 30 1016.3 1016.2 0.0
30/12:00am 17.4 9.4 13.5 78 2.2 SE 48 59 26 32 1016.1 1016.0 0.0
 
Date/Time
CDT
Temp
°C
App
Temp
°C
Dew
Point
Rel
Hum
%
Delta-T
°C
Wind Press
QNH
hPa
Press
MSL
hPa
Rain
since 9 am
mm
Dir
 
Spd
km/h
Gust
km/h
Spd
kts
Gust
kts
29/11:30pm 17.5 9.2 13.8 79 2.1 SE 50 59 27 32 1016.3 1016.2 0.0
29/11:00pm 17.5 9.8 14.4 82 1.8 SE 48 57 26 31 1016.5 1016.4 0.0
29/10:30pm 17.5 9.9 14.6 83 1.7 SE 48 57 26 31 1016.9 1016.8 0.0
29/10:00pm 17.2 10.4 14.3 83 1.7 SSE 43 52 23 28 1017.0 1016.9 0.0
29/09:30pm 17.1 10.1 14.2 83 1.7 SSE 44 56 24 30 1016.8 1016.7 0.0
29/09:00pm 17.0 10.3 14.5 85 1.4 SSE 43 56 23 30 1016.8 1016.7 0.0
29/08:30pm 17.1 10.3 14.4 84 1.5 SSE 43 52 23 28 1016.7 1016.6 0.0
29/08:00pm 17.2 10.3 14.1 82 1.8 SSE 43 54 23 29 1016.7 1016.6 0.0
29/07:30pm 17.5 11.0 14.0 80 2.0 SSE 41 50 22 27 1016.6 1016.5 0.0
29/07:00pm 17.5 11.1 14.4 82 1.8 SSE 41 52 22 28 1016.5 1016.4 0.0
29/06:30pm 17.4 11.3 14.1 81 1.9 SSE 39 48 21 26 1016.4 1016.3 0.0
29/06:00pm 17.6 12.1 14.7 83 1.7 SSE 37 43 20 23 1016.5 1016.4 0.0
29/05:30pm 17.6 11.9 14.1 80 2.0 SSE 37 46 20 25 1016.7 1016.6 0.0
29/05:00pm 17.9 13.1 14.6 81 1.9 SSE 33 41 18 22 1017.0 1016.9 0.0
29/04:30pm 18.0 12.7 14.1 78 2.2 SSE 35 43 19 23 1017.3 1017.2 0.0
29/04:00pm 17.9 12.5 13.8 77 2.3 SSE 35 43 19 23 1017.6 1017.5 0.0
29/03:30pm 18.3 12.9 13.8 75 2.6 SSE 35 43 19 23 1017.9 1017.8 0.0
29/03:00pm 18.9 14.3 13.5 71 3.1 SSE 30 37 16 20 1018.4 1018.3 0.0
29/02:30pm 19.5 14.6 12.5 64 3.9 SE 30 35 16 19 1018.5 1018.4 0.0
29/02:00pm 19.9 15.8 12.7 63 4.1 SE 26 32 14 17 1018.8 1018.7 0.0
29/01:30pm 19.7 15.4 12.2 62 4.2 SE 26 32 14 17 1019.1 1019.0 0.0
29/01:00pm 19.4 15.1 11.9 62 4.2 ESE 26 33 14 18 1019.2 1019.1 0.0
29/12:30pm 18.9 14.1 11.7 63 4.0 ESE 28 35 15 19 1019.4 1019.3 0.0
29/12:00pm 18.9 14.0 11.2 61 4.2 ESE 28 35 15 19 1019.7 1019.6 0.0
29/11:30am 18.9 14.3 12.4 66 3.6 ESE 28 37 15 20 1019.7 1019.6 0.0
29/11:00am 18.6 13.3 11.4 63 3.9 ESE 30 39 16 21 1020.0 1019.8 0.0
29/10:30am 18.6 13.3 12.4 67 3.4 ESE 32 39 17 21 1020.0 1019.8 0.0
29/10:00am 18.3 12.6 11.8 66 3.6 ESE 33 41 18 22 1020.0 1019.8 0.0
29/09:30am 17.9 12.1 11.5 66 3.5 ESE 33 43 18 23 1019.8 1019.7 0.0
29/09:00am 17.4 11.3 11.7 69 3.1 ESE 35 43 19 23 1019.6 1019.5 -
29/08:30am 17.5 11.6 12.4 72 2.8 ESE 35 46 19 25 1019.5 1019.4 -
29/08:00am 17.3 11.0 12.4 73 2.7 ESE 37 44 20 24 1019.0 1018.9 -
29/07:30am 17.2 11.7 12.5 74 2.6 ESE 33 43 18 23 1018.9 1018.8 -
29/07:00am 17.2 12.0 12.7 75 2.5 ESE 32 41 17 22 1018.8 1018.7 -
29/06:30am 16.9 11.4 12.6 76 2.4 ESE 33 43 18 23 1018.5 1018.4 -
29/06:00am 17.0 11.5 12.3 74 2.6 ESE 33 41 18 22 1018.4 1018.3 -
29/05:30am 17.3 12.0 13.0 76 2.4 ESE 33 41 18 22 1018.2 1018.1 -
29/05:00am 17.3 11.8 12.6 74 2.6 ESE 33 43 18 23 1017.8 1017.7 -
29/04:30am 17.5 11.8 13.0 75 2.5 ESE 35 43 19 23 1017.7 1017.6 -
29/04:00am 17.6 11.5 13.1 75 2.5 ESE 37 46 20 25 1017.5 1017.4 -
29/03:30am 17.8 11.5 13.5 76 2.4 ESE 39 48 21 26 1017.3 1017.2 -
29/03:00am 17.8 10.6 13.1 74 2.6 ESE 43 52 23 28 1017.0 1016.9 0.0
29/02:30am 17.9 11.9 14.4 80 2.0 ESE 39 48 21 26 1017.1 1017.0 -
29/02:00am 17.8 10.9 14.5 81 1.9 SE 44 52 24 28 1017.0 1016.9 -
29/01:30am 17.7 9.6 14.4 81 1.9 SE 50 59 27 32 1016.8 1016.7 -
29/01:00am 17.7 9.8 15.0 84 1.6 SE 50 59 27 32 1016.8 1016.7 -
29/12:30am 17.6 9.8 15.2 86 1.4 SE 50 57 27 31 1016.7 1016.6 -
29/12:00am 17.3 9.5 15.3 88 1.2 SE 50 59 27 32 1016.8 1016.7 -
 
Date/Time
CDT
Temp
°C
App
Temp
°C
Dew
Point
Rel
Hum
%
Delta-T
°C
Wind Press
QNH
hPa
Press
MSL
hPa
Rain
since 9 am
mm
Dir
 
Spd
km/h
Gust
km/h
Spd
kts
Gust
kts
28/11:30pm 17.2 9.0 15.2 88 1.2 SSE 52 61 28 33 1017.0 1016.9 -
28/11:00pm 17.4 10.1 15.6 89 1.1 SSE 48 65 26 35 1017.1 1017.0 -
28/10:30pm 17.2 9.9 15.4 89 1.1 SSE 48 61 26 33 1017.0 1016.9 -
28/10:00pm 17.2 8.9 15.0 87 1.3 SSE 52 67 28 36 1016.9 1016.8 -
28/09:30pm 17.1 9.5 14.7 86 1.4 SSE 48 61 26 33 1016.9 1016.8 -
28/09:00pm 17.1 9.5 14.6 85 1.4 SSE 48 61 26 33 1016.8 1016.7 0.0
28/08:30pm 16.9 9.6 14.4 85 1.4 SSE 46 57 25 31 1016.9 1016.8 -
28/08:00pm 16.9 10.0 14.4 85 1.4 SSE 44 56 24 30 1016.9 1016.8 -
28/07:30pm 17.1 10.3 14.4 84 1.5 SSE 43 56 23 30 1017.2 1017.1 -
28/07:00pm 17.0 10.5 13.9 82 1.8 SSE 41 52 22 28 1017.2 1017.1 -
28/06:30pm 17.1 10.1 13.8 81 1.9 SSE 43 48 23 26 1017.1 1017.0 -
28/06:00pm 17.2 9.6 13.5 79 2.1 SSE 46 57 25 31 1016.8 1016.7 -
28/05:30pm 17.4 10.1 13.3 77 2.3 SSE 44 52 24 28 1017.2 1017.1 -
28/05:00pm 17.1 9.7 12.4 74 2.6 SSE 43 54 23 29 1017.3 1017.2 -
28/04:30pm 17.1 9.4 12.2 73 2.7 SSE 44 54 24 29 1017.4 1017.3 -
28/04:00pm 17.3 9.9 12.4 73 2.7 SSE 43 54 23 29 1017.7 1017.6 -
28/03:30pm 17.6 9.7 11.6 68 3.3 SSE 44 54 24 29 1018.1 1018.0 -
28/03:00pm 17.4 10.0 11.2 67 3.4 SSE 41 52 22 28 1018.4 1018.3 -
28/02:30pm 17.1 9.6 10.9 67 3.3 SSE 41 48 22 26 1018.6 1018.5 -
28/02:00pm 17.1 10.3 10.5 65 3.5 SSE 37 48 20 26 1019.1 1019.0 -
28/01:30pm 17.4 10.3 10.8 65 3.5 SSE 39 50 21 27 1019.6 1019.5 -
28/01:00pm 17.0 9.6 9.7 62 3.8 SSE 39 48 21 26 1020.0 1019.8 -
28/12:30pm 16.7 8.3 9.1 61 3.9 SSE 43 52 23 28 1019.7 1019.6 -
28/12:00pm 16.6 9.8 10.5 67 3.2 SSE 37 46 20 25 1019.7 1019.6 -
28/11:30am 16.5 9.3 10.6 68 3.1 SE 39 46 21 25 1020.0 1019.8 0.0
28/11:00am 16.9 9.7 10.7 67 3.3 SE 39 46 21 25 1020.0 1019.8 0.0
28/10:30am 16.7 9.6 11.0 69 3.1 SE 39 48 21 26 1019.7 1019.6 0.0
28/10:00am 17.1 9.3 9.8 62 3.8 ESE 41 50 22 27 1019.6 1019.5 0.0
28/09:30am 16.4 8.3 10.0 66 3.4 ESE 43 52 23 28 1019.6 1019.5 0.0
28/09:00am 16.0 8.7 10.3 69 3.0 ESE 39 46 21 25 1019.6 1019.5 0.0
28/08:30am 15.7 7.7 8.9 64 3.5 SE 41 50 22 27 1019.5 1019.4 0.0
28/08:00am 15.6 8.1 9.3 66 3.3 SE 39 48 21 26 1019.3 1019.2 0.0
28/07:30am 15.6 6.7 9.1 65 3.3 SE 46 56 25 30 1018.4 1018.3 0.0
28/07:00am 15.6 8.0 9.1 65 3.3 SE 39 50 21 27 1018.3 1018.2 0.0
28/06:30am 15.7 7.6 10.0 69 3.0 SE 43 54 23 29 1018.1 1018.0 0.0
28/06:00am 15.7 8.4 8.9 64 3.5 SE 37 48 20 26 1017.7 1017.6 0.0
28/05:30am 15.4 7.5 9.3 67 3.1 SE 41 48 22 26 1017.8 1017.7 0.0
28/05:00am 15.5 7.6 9.2 66 3.2 ESE 41 50 22 27 1017.6 1017.5 0.0
28/04:30am 15.5 7.9 9.0 65 3.3 ESE 39 50 21 27 1017.4 1017.3 0.0
28/04:00am 15.6 8.1 9.3 66 3.3 SE 39 44 21 24 1017.4 1017.3 0.0
28/03:30am 15.8 8.2 9.2 65 3.4 SE 39 50 21 27 1017.6 1017.5 0.0
28/03:00am 16.0 7.3 10.1 68 3.1 SE 46 54 25 29 1017.6 1017.5 0.0
28/02:30am 15.9 8.0 10.7 71 2.8 SE 43 50 23 27 1017.9 1017.8 0.0
28/02:00am 15.8 7.5 9.2 65 3.4 SE 43 54 23 29 1018.1 1018.0 0.0
28/01:30am 15.8 7.6 10.3 70 2.9 SSE 44 57 24 31 1018.5 1018.4 0.0
28/01:00am 16.0 7.9 10.1 68 3.1 SE 43 54 23 29 1018.7 1018.6 0.0
28/12:30am 15.8 7.6 10.3 70 2.9 SSE 44 52 24 28 1018.8 1018.7 0.0
28/12:00am 15.7 7.1 10.2 70 2.9 SE 46 56 25 30 1018.7 1018.6 0.0
 
Date/Time
CDT
Temp
°C
App
Temp
°C
Dew
Point
Rel
Hum
%
Delta-T
°C
Wind Press
QNH
hPa
Press
MSL
hPa
Rain
since 9 am
mm
Dir
 
Spd
km/h
Gust
km/h
Spd
kts
Gust
kts
27/11:30pm 15.9 8.4 10.7 71 2.8 SSE 41 52 22 28 1019.0 1018.9 0.0
27/11:00pm 15.9 7.7 9.8 67 3.2 SSE 43 52 23 28 1018.9 1018.8 0.0
27/10:30pm 15.8 7.1 9.9 68 3.1 SSE 46 56 25 30 1018.8 1018.7 0.0
27/10:00pm 16.1 8.2 10.8 71 2.8 SSE 43 56 23 30 1018.8 1018.7 0.0
27/09:30pm 15.9 7.7 9.6 66 3.3 SSE 43 56 23 30 1018.4 1018.3 0.0
27/09:19pm 15.9 8.0 9.3 65 3.4 SSE 41 59 22 32 1018.4 1018.3 0.0
27/09:00pm 15.8 7.8 9.0 64 3.5 SSE 41 50 22 27 1018.4 1018.3 0.0
27/08:30pm 16.0 8.2 9.9 67 3.2 SSE 41 50 22 27 1018.1 1018.0 0.0
27/08:00pm 16.1 9.0 10.8 71 2.8 SSE 39 50 21 27 1018.3 1018.2 0.0
27/07:30pm 16.1 9.0 9.5 65 3.4 SSE 37 50 20 27 1018.1 1018.0 0.0
27/07:00pm 16.4 9.2 10.7 69 3.0 SSE 39 50 21 27 1018.0 1017.9 0.0
27/06:30pm 16.2 9.5 10.9 71 2.8 SSE 37 44 20 24 1017.8 1017.7 0.0
27/06:00pm 16.3 9.9 10.8 70 2.9 SSE 35 46 19 25 1018.0 1017.9 0.0
27/05:30pm 16.4 9.4 10.0 66 3.4 SSE 37 44 20 24 1017.9 1017.8 0.0
27/05:00pm 16.3 9.7 11.5 73 2.6 SSE 37 50 20 27 1017.8 1017.7 0.0
27/04:30pm 16.4 10.3 10.3 67 3.2 SSE 33 43 18 23 1017.8 1017.7 0.0
27/04:00pm 16.8 10.6 9.2 61 3.9 SSE 32 39 17 21 1017.8 1017.7 0.0
27/03:30pm 17.3 12.0 9.7 61 4.0 SSE 28 37 15 20 1018.1 1018.0 0.0

Other Formats:

Comma delimited format used in spreadsheet applications
http://www.bom.gov.au/fwo/IDS60801/IDS60801.94822.axf

JavaScript Object Notation format (JSON) in row-major order
http://www.bom.gov.au/fwo/IDS60801/IDS60801.94822.json